createdAt,value
2024-01-16T00:00:55.691Z,42.44
2024-01-16T00:03:22.200Z,42.31
2024-01-16T00:05:48.784Z,42.28
2024-01-16T00:08:15.496Z,42.37
2024-01-16T00:10:42.199Z,42.32
2024-01-16T00:13:08.931Z,42.27
2024-01-16T00:15:35.416Z,42.59
2024-01-16T00:18:02.035Z,42.65
2024-01-16T00:20:28.600Z,42.61
2024-01-16T00:22:55.097Z,42.59
2024-01-16T00:25:21.486Z,42.48
2024-01-16T00:27:48.011Z,42.63
2024-01-16T00:30:14.766Z,42.49
2024-01-16T00:32:41.264Z,42.55
2024-01-16T00:35:07.951Z,42.49
2024-01-16T00:37:34.418Z,42.43
2024-01-16T00:40:00.834Z,42.27
2024-01-16T00:42:28.331Z,42.37
2024-01-16T00:44:54.928Z,42.33
2024-01-16T00:47:21.689Z,42.22
2024-01-16T00:49:48.654Z,42.18
2024-01-16T00:52:15.078Z,42.13
2024-01-16T00:54:42.986Z,42.08
2024-01-16T00:57:09.380Z,42.15
2024-01-16T00:59:35.940Z,42.10
2024-01-16T01:02:02.366Z,42.16
2024-01-16T01:04:28.813Z,42.06
2024-01-16T01:06:55.292Z,42.08
2024-01-16T01:09:21.822Z,42.04
2024-01-16T01:11:48.342Z,41.92
2024-01-16T01:14:14.998Z,41.99
2024-01-16T01:16:41.462Z,41.99
2024-01-16T01:19:08.181Z,42.07
2024-01-16T01:21:36.539Z,42.02
2024-01-16T01:24:02.976Z,41.99
2024-01-16T01:26:29.443Z,41.86
2024-01-16T01:28:55.966Z,41.86
2024-01-16T01:31:22.843Z,41.83
2024-01-16T01:33:49.416Z,41.83
2024-01-16T01:36:15.932Z,41.95
2024-01-16T01:38:42.735Z,41.88
2024-01-16T01:41:09.845Z,41.93
2024-01-16T01:43:36.389Z,41.93
2024-01-16T01:46:19.189Z,42.01
2024-01-16T01:48:47.265Z,41.91
2024-01-16T01:51:14.849Z,41.88
2024-01-16T01:53:43.208Z,41.82
2024-01-16T01:56:12.568Z,41.81
2024-01-16T01:58:39.626Z,41.62
2024-01-16T02:01:07.357Z,41.76
2024-01-16T02:03:36.416Z,41.61
2024-01-16T02:06:03.371Z,41.73
2024-01-16T02:08:30.032Z,41.69
2024-01-16T02:10:56.481Z,41.63
2024-01-16T02:13:24.694Z,41.52
2024-01-16T02:15:51.573Z,41.54
2024-01-16T02:18:18.411Z,41.53
2024-01-16T02:20:45.640Z,41.44
2024-01-16T02:23:14.529Z,41.37
2024-01-16T02:25:44.667Z,41.38
2024-01-16T02:28:11.410Z,41.39
2024-01-16T02:30:37.965Z,41.61
2024-01-16T02:33:05.053Z,41.74
2024-01-16T02:35:31.758Z,41.84
2024-01-16T02:37:58.371Z,41.80
2024-01-16T02:40:24.805Z,41.88
2024-01-16T02:42:51.265Z,41.92
2024-01-16T02:45:18.750Z,41.89
2024-01-16T02:47:45.409Z,41.71
2024-01-16T02:50:12.227Z,41.67
2024-01-16T02:52:38.715Z,41.50
2024-01-16T02:55:06.305Z,41.54
2024-01-16T02:57:32.756Z,41.46
2024-01-16T02:59:59.247Z,41.39
2024-01-16T03:02:25.708Z,41.32
2024-01-16T03:04:52.219Z,41.27
2024-01-16T03:07:18.660Z,41.29
2024-01-16T03:09:45.140Z,41.05
2024-01-16T03:12:11.683Z,41.08
2024-01-16T03:14:40.104Z,41.15
2024-01-16T03:17:07.699Z,40.93
2024-01-16T03:19:34.230Z,41.17
2024-01-16T03:22:00.755Z,41.18
2024-01-16T03:24:27.806Z,41.22
2024-01-16T03:26:54.858Z,41.20
2024-01-16T03:29:21.628Z,41.11
2024-01-16T03:31:49.035Z,40.98
2024-01-16T03:34:15.604Z,41.03
2024-01-16T03:36:42.042Z,40.97
2024-01-16T03:39:10.079Z,40.91
2024-01-16T03:41:36.772Z,40.81
2024-01-16T03:44:03.507Z,40.87
2024-01-16T03:46:30.394Z,40.80
2024-01-16T03:48:57.036Z,40.77
2024-01-16T03:51:23.552Z,40.60
2024-01-16T03:53:49.965Z,40.56
2024-01-16T03:56:17.465Z,40.66
2024-01-16T03:58:44.102Z,40.59
2024-01-16T04:01:10.622Z,40.64
2024-01-16T04:03:37.229Z,40.53
2024-01-16T04:06:03.913Z,40.49
2024-01-16T04:08:30.501Z,40.55
2024-01-16T04:10:56.937Z,40.54
2024-01-16T04:13:23.418Z,40.52
2024-01-16T04:15:50.125Z,40.52
2024-01-16T04:18:16.901Z,40.36
2024-01-16T04:20:43.410Z,40.17
2024-01-16T04:23:09.903Z,40.42
2024-01-16T04:25:36.506Z,40.52
2024-01-16T04:28:03.604Z,40.34
2024-01-16T04:30:30.280Z,40.38
2024-01-16T04:32:56.844Z,40.34
2024-01-16T04:35:23.614Z,40.31
2024-01-16T04:37:50.097Z,40.30
2024-01-16T04:40:16.517Z,40.39
2024-01-16T04:42:44.249Z,40.44
2024-01-16T04:45:10.667Z,40.27
2024-01-16T04:47:37.274Z,40.33
2024-01-16T04:50:05.121Z,40.46
2024-01-16T04:52:31.568Z,40.43
2024-01-16T04:54:58.139Z,40.44
2024-01-16T04:57:24.549Z,40.44
2024-01-16T04:59:51.385Z,40.50
2024-01-16T05:02:18.500Z,40.47
2024-01-16T05:04:45.210Z,40.28
2024-01-16T05:07:11.624Z,40.29
2024-01-16T05:09:38.058Z,40.20
2024-01-16T05:12:04.705Z,40.13
2024-01-16T05:14:31.362Z,40.19
2024-01-16T05:16:57.861Z,40.10
2024-01-16T05:19:24.376Z,40.09
2024-01-16T05:21:51.110Z,40.05
2024-01-16T05:24:17.532Z,40.09
2024-01-16T05:26:43.928Z,40.09
2024-01-16T05:29:10.368Z,39.96
2024-01-16T05:31:43.375Z,40.03
2024-01-16T05:34:10.568Z,40.03
2024-01-16T05:36:37.525Z,40.15
2024-01-16T05:39:04.064Z,40.15
2024-01-16T05:41:34.916Z,40.12
2024-01-16T05:44:01.855Z,40.19
2024-01-16T05:46:28.277Z,40.07
2024-01-16T05:48:54.858Z,39.93
2024-01-16T05:51:21.484Z,39.87
2024-01-16T05:53:48.231Z,39.87
2024-01-16T05:56:15.248Z,39.83
2024-01-16T05:58:41.697Z,39.71
2024-01-16T06:01:08.178Z,39.62
2024-01-16T06:03:34.651Z,39.73
2024-01-16T06:06:01.386Z,39.64
2024-01-16T06:08:27.982Z,39.65
2024-01-16T06:10:54.392Z,39.59
2024-01-16T06:13:21.084Z,39.57
2024-01-16T06:15:47.493Z,39.54
2024-01-16T06:18:14.139Z,39.54
2024-01-16T06:20:40.707Z,39.50
2024-01-16T06:23:07.692Z,39.47
2024-01-16T06:25:34.126Z,39.25
2024-01-16T06:28:03.396Z,39.29
2024-01-16T06:30:30.729Z,39.34
2024-01-16T06:32:57.487Z,39.27
2024-01-16T06:35:24.673Z,39.30
2024-01-16T06:37:51.123Z,39.18
2024-01-16T06:40:17.534Z,39.16
2024-01-16T06:42:43.911Z,39.34
2024-01-16T06:45:10.544Z,39.29
2024-01-16T06:47:37.047Z,39.26
2024-01-16T06:50:04.590Z,39.14
2024-01-16T06:52:31.051Z,39.23
2024-01-16T06:54:57.572Z,39.32
2024-01-16T06:57:23.958Z,39.15
2024-01-16T06:59:50.778Z,39.21
2024-01-16T07:02:17.253Z,39.13
2024-01-16T07:04:43.626Z,38.97
2024-01-16T07:07:10.043Z,38.92
2024-01-16T07:09:36.472Z,39.02
2024-01-16T07:12:04.891Z,38.93
2024-01-16T07:14:32.111Z,38.90
2024-01-16T07:16:58.697Z,39.01
2024-01-16T07:19:25.220Z,38.82
2024-01-16T07:21:51.746Z,38.81
2024-01-16T07:24:18.183Z,38.75
2024-01-16T07:26:44.687Z,38.74
2024-01-16T07:29:11.142Z,38.79
2024-01-16T07:31:37.684Z,38.84
2024-01-16T07:34:04.300Z,38.94
2024-01-16T07:36:31.550Z,39.06
2024-01-16T07:38:58.956Z,38.91
2024-01-16T07:41:25.483Z,38.74
2024-01-16T07:43:51.925Z,38.64
2024-01-16T07:46:18.907Z,38.60
2024-01-16T07:48:45.646Z,38.52
2024-01-16T07:51:12.095Z,38.50
2024-01-16T07:53:38.587Z,38.38
2024-01-16T07:56:05.808Z,38.28
2024-01-16T07:58:32.292Z,38.29
2024-01-16T08:00:58.817Z,38.20
2024-01-16T08:03:25.280Z,38.12
2024-01-16T08:05:52.164Z,38.15
2024-01-16T08:08:18.742Z,38.09
2024-01-16T08:10:45.263Z,38.01
2024-01-16T08:13:11.741Z,37.96
2024-01-16T08:15:38.120Z,37.87
2024-01-16T08:18:04.996Z,37.86
2024-01-16T08:20:31.712Z,37.91
2024-01-16T08:22:58.154Z,37.76
2024-01-16T08:25:24.659Z,37.84
2024-01-16T08:27:53.009Z,37.71
2024-01-16T08:30:19.586Z,37.61
2024-01-16T08:32:46.078Z,37.58
2024-01-16T08:35:12.769Z,37.52
2024-01-16T08:37:39.286Z,37.52
2024-01-16T08:40:06.364Z,37.41
2024-01-16T08:42:33.053Z,37.42
2024-01-16T08:44:59.481Z,37.42
2024-01-16T08:47:26.039Z,37.22
2024-01-16T08:49:52.912Z,37.25
2024-01-16T08:52:44.818Z,37.28
2024-01-16T08:55:11.214Z,37.29
2024-01-16T08:57:40.438Z,37.15
2024-01-16T09:00:07.162Z,37.21
2024-01-16T09:02:33.635Z,37.11
2024-01-16T09:05:00.287Z,37.12
2024-01-16T09:07:27.645Z,37.21
2024-01-16T09:09:54.670Z,37.18
2024-01-16T09:12:21.087Z,37.14
2024-01-16T09:14:47.490Z,37.17
2024-01-16T09:17:14.100Z,37.11
2024-01-16T09:19:40.643Z,37.03
2024-01-16T09:22:07.093Z,37.17
2024-01-16T09:24:33.545Z,37.05
2024-01-16T09:27:00.070Z,37.07
2024-01-16T09:29:26.526Z,37.06
2024-01-16T09:31:53.035Z,37.00
2024-01-16T09:34:19.473Z,37.03
2024-01-16T09:36:45.893Z,37.01
2024-01-16T09:39:12.409Z,36.95
2024-01-16T09:41:39.124Z,36.91
2024-01-16T09:44:06.248Z,36.90
2024-01-16T09:46:32.951Z,36.82
2024-01-16T09:49:01.048Z,36.79
2024-01-16T09:51:27.593Z,36.84
2024-01-16T09:53:54.158Z,36.84
2024-01-16T09:56:22.718Z,36.82
2024-01-16T09:58:50.218Z,36.83
2024-01-16T10:01:17.075Z,36.77
2024-01-16T10:03:45.765Z,36.68
2024-01-16T10:06:13.215Z,36.70
2024-01-16T10:08:40.555Z,36.72
2024-01-16T10:11:10.058Z,36.67
2024-01-16T10:13:39.760Z,36.69
2024-01-16T10:16:06.215Z,36.52
2024-01-16T10:18:33.554Z,36.58
2024-01-16T10:21:02.691Z,36.59
2024-01-16T10:23:30.147Z,36.44
2024-01-16T10:26:08.767Z,36.48
2024-01-16T10:28:35.891Z,36.48
2024-01-16T10:31:03.790Z,36.47
2024-01-16T10:33:30.751Z,36.48
2024-01-16T10:36:09.408Z,36.39
2024-01-16T10:38:39.041Z,36.38
2024-01-16T10:41:07.167Z,36.40
2024-01-16T10:43:33.867Z,36.40
2024-01-16T10:46:07.915Z,36.33
2024-01-16T10:48:34.360Z,36.36
2024-01-16T10:51:02.004Z,36.26
2024-01-16T10:53:31.738Z,36.39
2024-01-16T10:55:58.225Z,36.24
2024-01-16T10:58:25.362Z,36.26
2024-01-16T11:00:53.412Z,36.24
2024-01-16T11:03:23.865Z,36.22
2024-01-16T11:05:50.787Z,36.23
2024-01-16T11:08:18.594Z,36.19
2024-01-16T11:10:45.900Z,36.14
2024-01-16T11:13:13.568Z,36.13
2024-01-16T11:15:42.353Z,36.23
2024-01-16T11:18:09.357Z,36.17
2024-01-16T11:20:55.424Z,36.22
2024-01-16T11:23:22.607Z,36.26
2024-01-16T11:25:49.076Z,36.24
2024-01-16T11:28:16.829Z,36.09
2024-01-16T11:30:46.675Z,36.32
2024-01-16T11:33:36.342Z,36.07
2024-01-16T11:36:03.130Z,36.09
2024-01-16T11:38:30.989Z,36.08
2024-01-16T11:40:57.563Z,35.99
2024-01-16T11:43:33.287Z,35.98
2024-01-16T11:46:00.279Z,36.05
2024-01-16T11:48:27.103Z,36.10
2024-01-16T11:50:54.124Z,35.98
2024-01-16T11:53:41.323Z,36.04
2024-01-16T11:56:37.573Z,36.04
2024-01-16T11:59:28.854Z,36.09
2024-01-16T12:01:58.780Z,36.13
2024-01-16T12:04:25.150Z,36.21
2024-01-16T12:06:59.093Z,36.23
2024-01-16T12:09:27.058Z,36.16
2024-01-16T12:11:58.677Z,36.22
2024-01-16T12:14:25.273Z,36.22
2024-01-16T12:16:51.684Z,36.33
2024-01-16T12:19:18.205Z,36.25
2024-01-16T12:21:45.593Z,36.18
2024-01-16T12:24:14.798Z,36.31
2024-01-16T12:26:44.795Z,36.21
2024-01-16T12:29:11.306Z,36.25
2024-01-16T12:31:37.735Z,36.25
2024-01-16T12:34:11.010Z,36.30
2024-01-16T12:36:38.835Z,36.32
2024-01-16T12:39:06.667Z,36.31
2024-01-16T12:41:42.896Z,36.32
2024-01-16T12:44:15.766Z,36.13
2024-01-16T12:47:10.135Z,36.16
2024-01-16T12:49:45.587Z,36.21
2024-01-16T12:52:19.565Z,36.15
2024-01-16T12:54:46.457Z,36.23
2024-01-16T12:57:17.716Z,36.16
2024-01-16T12:59:44.458Z,36.06
2024-01-16T13:02:12.625Z,36.20
2024-01-16T13:04:39.237Z,36.18
2024-01-16T13:07:06.636Z,36.20
2024-01-16T13:09:33.256Z,36.06
2024-01-16T13:12:00.132Z,36.15
2024-01-16T13:14:26.946Z,36.30
2024-01-16T13:16:55.463Z,36.14
2024-01-16T13:19:22.561Z,36.12
2024-01-16T13:21:49.866Z,36.15
2024-01-16T13:24:18.436Z,36.20
2024-01-16T13:26:45.095Z,36.15
2024-01-16T13:29:11.537Z,36.12
2024-01-16T13:31:38.077Z,36.09
2024-01-16T13:34:05.507Z,36.14
2024-01-16T13:39:01.319Z,36.23
2024-01-16T13:41:28.837Z,36.06
2024-01-16T13:43:55.376Z,36.16
2024-01-16T13:46:36.767Z,36.20
2024-01-16T13:49:10.115Z,36.19
2024-01-16T13:51:36.743Z,36.16
2024-01-16T13:54:03.186Z,36.06
2024-01-16T13:56:46.359Z,36.21
2024-01-16T13:59:16.032Z,36.22
2024-01-16T14:01:42.455Z,36.24
2024-01-16T14:04:09.524Z,36.13
2024-01-16T14:09:10.782Z,36.15
2024-01-16T14:11:38.718Z,36.19
2024-01-16T14:14:06.224Z,36.20
2024-01-16T14:16:47.854Z,36.28
2024-01-16T14:19:18.424Z,36.30
2024-01-16T14:21:44.874Z,36.18
2024-01-16T14:24:11.625Z,36.21
2024-01-16T14:26:38.489Z,36.21
2024-01-16T14:29:04.991Z,36.23
2024-01-16T14:31:31.336Z,36.26
2024-01-16T14:33:58.062Z,36.21
2024-01-16T14:36:25.116Z,36.24
2024-01-16T14:38:52.649Z,36.33
2024-01-16T14:41:19.384Z,36.31
2024-01-16T14:43:46.650Z,36.34
2024-01-16T14:46:13.477Z,36.30
2024-01-16T14:48:45.174Z,36.37
2024-01-16T14:51:11.751Z,36.21
2024-01-16T14:53:38.397Z,36.37
2024-01-16T14:56:06.348Z,36.18
2024-01-16T14:58:33.219Z,36.26
2024-01-16T15:00:59.745Z,36.38
2024-01-16T15:03:26.258Z,36.27
2024-01-16T15:05:54.478Z,36.27
2024-01-16T15:08:20.959Z,36.28
2024-01-16T15:10:47.435Z,36.37
2024-01-16T15:13:13.901Z,36.27
2024-01-16T15:15:40.331Z,36.31
2024-01-16T15:18:06.891Z,36.45
2024-01-16T15:20:33.370Z,36.34
2024-01-16T15:22:59.784Z,36.30
2024-01-16T15:25:26.622Z,36.37
2024-01-16T15:27:56.109Z,36.44
2024-01-16T15:30:23.189Z,36.43
2024-01-16T15:32:50.238Z,36.30
2024-01-16T15:35:16.945Z,36.39
2024-01-16T15:37:45.262Z,36.37
2024-01-16T15:40:14.230Z,36.45
2024-01-16T15:42:42.039Z,36.41
2024-01-16T15:45:09.011Z,36.45
2024-01-16T15:47:36.540Z,36.47
2024-01-16T15:50:07.883Z,36.38
2024-01-16T15:52:34.661Z,36.45
2024-01-16T15:55:01.575Z,36.38
2024-01-16T15:57:29.165Z,36.44
2024-01-16T15:59:55.941Z,36.42
2024-01-16T16:02:22.438Z,36.44
2024-01-16T16:04:48.924Z,36.37
2024-01-16T16:07:15.316Z,36.39
2024-01-16T16:09:41.948Z,36.45
2024-01-16T16:12:08.610Z,36.36
2024-01-16T16:14:41.450Z,36.41
2024-01-16T16:17:09.876Z,36.33
2024-01-16T16:19:37.181Z,36.39
2024-01-16T16:22:08.061Z,36.44
2024-01-16T16:24:36.060Z,36.50
2024-01-16T16:27:04.782Z,36.52
2024-01-16T16:29:31.246Z,36.54
2024-01-16T16:31:59.259Z,36.58
2024-01-16T16:34:25.791Z,36.49
2024-01-16T16:36:52.823Z,36.37
2024-01-16T16:39:19.439Z,36.40
2024-01-16T16:41:46.128Z,36.29
2024-01-16T16:44:12.632Z,36.25
2024-01-16T16:46:39.749Z,36.20
2024-01-16T16:49:06.317Z,36.22
2024-01-16T16:51:35.099Z,36.13
2024-01-16T16:54:01.521Z,36.04
2024-01-16T16:56:28.012Z,36.19
2024-01-16T16:58:54.459Z,36.08
2024-01-16T17:01:21.042Z,36.03
2024-01-16T17:03:50.118Z,35.97
2024-01-16T17:06:16.847Z,35.97
2024-01-16T17:08:46.591Z,35.90
2024-01-16T17:11:13.940Z,35.95
2024-01-16T17:13:41.539Z,35.92
2024-01-16T17:16:11.583Z,35.80
2024-01-16T17:18:39.580Z,35.84
2024-01-16T17:21:06.918Z,35.79
2024-01-16T17:23:33.725Z,35.84
2024-01-16T17:26:00.603Z,35.78
2024-01-16T17:28:29.201Z,35.75
2024-01-16T17:30:56.156Z,35.71
2024-01-16T17:33:22.953Z,35.58
2024-01-16T17:35:49.709Z,35.52
2024-01-16T17:38:16.363Z,35.56
2024-01-16T17:40:42.967Z,35.45
2024-01-16T17:43:09.462Z,35.43
2024-01-16T17:45:35.824Z,35.33
2024-01-16T17:48:02.356Z,35.47
2024-01-16T17:50:28.988Z,35.40
2024-01-16T17:52:55.813Z,35.37
2024-01-16T17:55:24.162Z,35.25
2024-01-16T17:57:51.120Z,35.39
2024-01-16T18:00:18.093Z,35.24
2024-01-16T18:02:44.526Z,35.24
2024-01-16T18:05:17.913Z,35.15
2024-01-16T18:07:44.560Z,35.18
2024-01-16T18:10:11.058Z,35.14
2024-01-16T18:12:38.465Z,35.10
2024-01-16T18:15:14.410Z,35.12
2024-01-16T18:17:40.937Z,35.11
2024-01-16T18:20:11.325Z,35.10
2024-01-16T18:22:38.137Z,35.08
2024-01-16T18:25:09.613Z,34.98
2024-01-16T18:27:39.388Z,35.08
2024-01-16T18:30:06.198Z,35.05
2024-01-16T18:32:33.939Z,35.09
2024-01-16T18:35:00.736Z,35.00
2024-01-16T18:37:27.188Z,35.06
2024-01-16T18:39:54.307Z,34.98
2024-01-16T18:42:23.597Z,35.09
2024-01-16T18:44:50.061Z,34.97
2024-01-16T18:47:21.800Z,34.92
2024-01-16T18:49:48.913Z,34.92
2024-01-16T18:52:16.165Z,34.93
2024-01-16T18:54:42.552Z,34.92
2024-01-16T18:57:08.989Z,34.94
2024-01-16T18:59:35.652Z,34.90
2024-01-16T19:02:04.178Z,34.94
2024-01-16T19:04:33.583Z,34.80
2024-01-16T19:07:01.125Z,34.82
2024-01-16T19:09:33.064Z,34.75
2024-01-16T19:11:59.568Z,34.85
2024-01-16T19:14:25.987Z,34.84
2024-01-16T19:16:52.483Z,34.84
2024-01-16T19:19:21.711Z,34.76
2024-01-16T19:21:48.160Z,34.84
2024-01-16T19:24:15.906Z,34.77
2024-01-16T19:26:44.717Z,34.83
2024-01-16T19:29:11.200Z,34.75
2024-01-16T19:31:37.611Z,34.80
2024-01-16T19:34:05.529Z,34.68
2024-01-16T19:36:32.011Z,34.76
2024-01-16T19:38:58.533Z,34.74
2024-01-16T19:41:25.299Z,34.74
2024-01-16T19:43:51.730Z,34.79
2024-01-16T19:46:18.267Z,34.66
2024-01-16T19:48:44.839Z,34.67
2024-01-16T19:51:11.478Z,34.61
2024-01-16T19:53:39.628Z,34.68
2024-01-16T19:56:08.330Z,34.67
2024-01-16T19:58:36.478Z,34.67
2024-01-16T20:01:03.976Z,34.76
2024-01-16T20:03:32.489Z,34.71
2024-01-16T20:05:59.130Z,34.68
2024-01-16T20:08:27.192Z,34.58
2024-01-16T20:10:53.642Z,34.66
2024-01-16T20:13:20.143Z,34.63
2024-01-16T20:15:49.772Z,34.68
2024-01-16T20:18:16.502Z,34.62
2024-01-16T20:20:43.049Z,34.54
2024-01-16T20:23:09.668Z,34.62
2024-01-16T20:25:36.208Z,34.60
2024-01-16T20:28:05.064Z,34.34
2024-01-16T20:30:31.775Z,34.51
2024-01-16T20:32:58.351Z,34.62
2024-01-16T20:35:25.240Z,34.58
2024-01-16T20:37:51.801Z,34.59
2024-01-16T20:40:18.376Z,34.48
2024-01-16T20:42:44.896Z,34.52
2024-01-16T20:45:11.419Z,34.42
2024-01-16T20:47:39.358Z,34.50
2024-01-16T20:50:07.052Z,34.49
2024-01-16T20:52:34.590Z,34.42
2024-01-16T20:55:04.286Z,34.64
2024-01-16T20:57:33.217Z,34.33
2024-01-16T20:59:59.848Z,34.39
2024-01-16T21:02:26.360Z,34.39
2024-01-16T21:04:53.185Z,34.30
2024-01-16T21:07:19.895Z,34.39
2024-01-16T21:09:46.483Z,34.43
2024-01-16T21:12:14.094Z,34.39
2024-01-16T21:14:40.614Z,34.27
2024-01-16T21:17:08.327Z,34.28
2024-01-16T21:19:36.430Z,34.31
2024-01-16T21:22:03.075Z,34.28
2024-01-16T21:24:29.788Z,34.34
2024-01-16T21:26:56.818Z,34.25
2024-01-16T21:29:24.357Z,34.23
2024-01-16T21:31:54.215Z,34.21
2024-01-16T21:34:24.551Z,34.23
2024-01-16T21:36:52.888Z,34.21
2024-01-16T21:39:21.221Z,34.22
2024-01-16T21:41:47.754Z,34.19
2024-01-16T21:44:14.668Z,34.13
2024-01-16T21:46:43.104Z,34.17
2024-01-16T21:49:10.220Z,34.06
2024-01-16T21:51:36.794Z,34.22
2024-01-16T21:54:04.038Z,34.12
2024-01-16T21:56:30.544Z,34.22
2024-01-16T21:58:57.548Z,34.21
2024-01-16T22:01:23.999Z,34.09
2024-01-16T22:03:51.251Z,34.09
2024-01-16T22:06:17.936Z,34.12
2024-01-16T22:08:51.137Z,34.07
2024-01-16T22:11:17.955Z,34.06
2024-01-16T22:13:45.421Z,34.14
2024-01-16T22:16:12.984Z,34.07
2024-01-16T22:18:39.542Z,34.07
2024-01-16T22:21:06.221Z,34.06
2024-01-16T22:23:32.750Z,34.05
2024-01-16T22:26:01.401Z,34.01
2024-01-16T22:28:30.965Z,34.00
2024-01-16T22:30:57.534Z,33.97
2024-01-16T22:33:24.514Z,33.97
2024-01-16T22:35:51.143Z,33.90
2024-01-16T22:38:19.283Z,33.96
2024-01-16T22:40:45.936Z,33.98
2024-01-16T22:43:12.339Z,34.05
2024-01-16T22:45:38.795Z,34.05
2024-01-16T22:48:11.887Z,34.06
2024-01-16T22:50:40.265Z,34.13
2024-01-16T22:53:07.656Z,34.11
2024-01-16T22:55:34.822Z,34.09
2024-01-16T22:58:02.079Z,34.13
2024-01-16T23:00:30.398Z,34.07
2024-01-16T23:02:58.002Z,34.09
2024-01-16T23:05:27.048Z,33.96
2024-01-16T23:07:54.695Z,33.96
2024-01-16T23:10:21.134Z,34.05
2024-01-16T23:12:47.555Z,34.04
2024-01-16T23:15:13.984Z,34.06
2024-01-16T23:17:40.549Z,33.97
2024-01-16T23:20:14.182Z,34.05
2024-01-16T23:22:41.828Z,34.10
2024-01-16T23:25:10.644Z,34.08
2024-01-16T23:27:41.687Z,34.10
2024-01-16T23:30:09.315Z,34.17
2024-01-16T23:32:36.153Z,34.00
2024-01-16T23:35:02.737Z,34.02
2024-01-16T23:37:31.215Z,34.15
2024-01-16T23:39:58.093Z,33.97
2024-01-16T23:42:25.604Z,34.05
2024-01-16T23:44:53.077Z,33.90
2024-01-16T23:47:19.537Z,33.99
2024-01-16T23:49:46.553Z,33.98
2024-01-16T23:52:14.491Z,33.98
2024-01-16T23:54:41.983Z,34.01
2024-01-16T23:57:08.831Z,33.91
2024-01-16T23:59:35.612Z,33.84
